Tropical Cyclones
[Index]
Main Index Home Page Stock Weather Photos Extreme Storms Discussion Storm News and Storm Chasing Reports Tropical Cyclones / Hurricanes / Typhoons Weather Data and Links Wild Fires / Bushfires Weather Observation Techniques Weather Picture Catalogue Tornado Pictures and Reports Stock Video Footage and DVDs for sale
Season 2011-2012 Tropical Cyclone 201219 Track Map
Season 2011-2012 Summaries (Operational Data): [AU] [SIO] [SPAC] [SH]
<<- Previous TC | 2011-2012 Season | Next TC ->>

click for intensity scale information  Lat/long Grid: Show Hide

 Date Labels: Show Hide

Operational Tropical Cyclone Data : JTWC Advisories

Name: 201219
Number: 1219

04 May 2012 06:00 UTC to 11 May 2012 18:00 UTC

    date/time    lat    long     hPa   cat  kts
2012-05-04 06    5.2   127.4    1010         15          
2012-05-04 12    5.1   127.1    1010         15          
2012-05-04 18    5.1   126.8    1010         15          
2012-05-05 06    5.1   127.5    1009         15          
2012-05-05 12    5.1   127.3    1008         20          
2012-05-05 18    5.1   127.0    1006         25          
2012-05-06 00    5.1   126.8    1006         25          
2012-05-06 06    5.2   126.3    1004         25          
2012-05-06 12    5.4   127.1    1000         30          
2012-05-06 18    5.9   127.7    1000         30          
2012-05-07 00    6.4   128.5    1000         30          
2012-05-07 06    6.8   129.6    1004         25          
2012-05-07 12    7.5   130.0    1004         25          
2012-05-07 18    7.8   129.9    1004         25          
2012-05-08 00    8.1   129.8    1004         25          
2012-05-08 06    8.6   129.6    1004         25          
2012-05-08 12    9.1   129.3    1004         25          
2012-05-08 18    9.4   128.9    1000         30          
2012-05-09 00    9.8   128.3    1000         30          
2012-05-09 06    9.9   127.6    1004         25          
2012-05-09 12   10.0   126.9    1004         25          
2012-05-09 18   10.0   126.7    1004         25          
2012-05-10 00   10.0   126.5    1004         25          
2012-05-10 06   10.0   126.2    1004         25          
2012-05-10 12    9.9   125.8    1004         25          
2012-05-10 18    9.8   125.3    1007         20          
2012-05-11 00    9.8   124.9    1007         20          
2012-05-11 06    9.9   124.5    1007         20          
2012-05-11 12    9.8   124.3    1007         20          
2012-05-11 18    9.6   124.6    1007         20          
Winds are 10-min average.

Tropical cyclone tracks developed by Michael Bath using operational warnings and advisories and Google Maps.


[Australian Severe Weather index] [Copyright Notice] [Email Contacts] [Search This Site] [Privacy Policy]
Document: tropical_cyclone_201219.htm Updated: 2 May 2017